Ryuhomaru — JD2639 — position and weather

sailwx.info

Track history (hours):
 
Tides and Currents Weather Stations Pressure Air Temp Water Temp Dewpoint Dewpoint Depression Visibility Wind Speed Wind Dir Waves Ship Positions

Ryuhomaru

Last reported at 2014-Nov-23 02:33 UTC. Time now 2014-Nov-23 03:30 UTC.
Position N 34°33' E 135°27'.

Length 42 m; draft 3.5 m.

Type: Tug. MMSI: 431000586.

Date/timePositionNaut miles runAvg speedWind from/ knotsBaromVisibWave heightAir tempDewpointWater temp
2014-Nov-23 02:33N 34°33' E 135°27'2 1.8
2014-Nov-23 01:33N 34°33' E 135°24'1 0.5
2014-Nov-23 00:32N 34°34' E 135°25'0 0.1
2014-Nov-22 23:33N 34°34' E 135°25'0 0.1
2014-Nov-22 22:32N 34°33' E 135°25'0 0.2
2014-Nov-22 21:33N 34°34' E 135°25'0 0.1
2014-Nov-22 20:33N 34°33' E 135°25'0 0.1
2014-Nov-22 19:33N 34°33' E 135°25'0 0.1
2014-Nov-22 18:33N 34°33' E 135°25'0 0.0
2014-Nov-22 17:33N 34°33' E 135°25'0 0.1
2014-Nov-22 16:33N 34°33' E 135°25'0 0.1
2014-Nov-22 15:32N 34°33' E 135°25'0 0.0
2014-Nov-22 14:33N 34°33' E 135°25'0 0.1
2014-Nov-22 13:33N 34°33' E 135°25'0 0.2
2014-Nov-22 12:33N 34°34' E 135°25'0 0.2
2014-Nov-22 11:33N 34°33' E 135°25'0 0.1
2014-Nov-22 10:32N 34°34' E 135°25'0 0.1
2014-Nov-22 09:33N 34°34' E 135°25'0 0.0
2014-Nov-22 08:32N 34°34' E 135°25'0 0.1
2014-Nov-22 07:32N 34°33' E 135°25'0 0.1
2014-Nov-22 06:33N 34°34' E 135°25'0 0.0
2014-Nov-22 05:32N 34°33' E 135°25'0 0.0
2014-Nov-22 04:33N 34°33' E 135°25'0 0.1
2014-Nov-22 03:30N 34°33' E 135°25'0 0.1
2014-Nov-22 02:30N 34°34' E 135°25'0 0.1
2014-Nov-22 01:33N 34°34' E 135°25'0 0.1
2014-Nov-22 00:22N 34°34' E 135°25'1 0.8
2014-Nov-21 23:31N 34°33' E 135°26'1 0.6
2014-Nov-21 22:33N 34°33' E 135°27'0 0.1
2014-Nov-21 21:33N 34°33' E 135°27'0 0.0
2014-Nov-21 06:07N 34°33' E 135°27'2 2.4
2014-Nov-21 05:18N 34°34' E 135°24'2 2.6
2014-Nov-21 04:32N 34°33' E 135°22'3 2.7
2014-Nov-21 03:33N 34°33' E 135°25'1 1.3
2014-Nov-21 02:33N 34°33' E 135°27'0 0.0
2014-Nov-21 01:33N 34°33' E 135°27'0 0.0
2014-Nov-21 00:33N 34°33' E 135°27'0 0.0
2014-Nov-20 23:33N 34°33' E 135°27'0 0.0
2014-Nov-20 22:33N 34°33' E 135°27'0 0.0
2014-Nov-20 06:30N 34°33' E 135°27'0 0.0
2014-Nov-20 05:34N 34°33' E 135°27'0 0.0
2014-Nov-20 04:27N 34°33' E 135°27'4 1.5
2014-Nov-20 01:28N 34°33' E 135°21'1 1.1
2014-Nov-20 00:33N 34°34' E 135°22'3 3.5
2014-Nov-19 23:33N 34°33' E 135°27'0 0.0
2014-Nov-19 22:33N 34°33' E 135°27'0 0.0
2014-Nov-19 07:08N 34°33' E 135°27'3 4.6
2014-Nov-19 06:33N 34°33' E 135°23'1414.0
2014-Nov-19 05:33N 34°25' E 135°10'7 4.9
2014-Nov-19 04:06N 34°22' E 135°02'712.8
2014-Nov-19 03:33N 34°27' E 135°08'1212.2
2014-Nov-19 02:33N 34°33' E 135°21'4 3.7
2014-Nov-19 01:33N 34°33' E 135°25'1 1.3
2014-Nov-19 00:33N 34°33' E 135°27'0 0.0
2014-Nov-18 23:33N 34°33' E 135°27'0 0.0
2014-Nov-18 22:33N 34°33' E 135°27'1 0.0
2014-Nov-18 06:33N 34°33' E 135°26'0 0.1
2014-Nov-18 05:32N 34°33' E 135°26'5 4.7
2014-Nov-18 04:32N 34°33' E 135°20'3 2.6
2014-Nov-18 03:33N 34°32' E 135°23'2 2.0
2014-Nov-18 02:33N 34°33' E 135°25'0 0.0
2014-Nov-18 01:32N 34°33' E 135°25'5 4.8
2014-Nov-18 00:31N 34°33' E 135°19'1111.0
2014-Nov-17 23:33N 34°27' E 135°09'1312.8
2014-Nov-17 22:31N 34°16' E 134°59'3 3.2
2014-Nov-17 21:33N 34°13' E 134°60'1110.9
2014-Nov-17 20:33N 34°24' E 135°03'1211.8
2014-Nov-17 19:33N 34°30' E 135°15'1010.0
2014-Nov-17 18:33N 34°33' E 135°27'0 0.0
2014-Nov-17 06:19N 34°33' E 135°27'0 0.0
2014-Nov-17 05:33N 34°33' E 135°27'0 0.0
2014-Nov-17 04:33N 34°33' E 135°27'0 0.0
2014-Nov-17 03:29N 34°33' E 135°27'0 0.0
2014-Nov-17 02:33N 34°33' E 135°27'0 0.0
2014-Nov-17 01:28N 34°33' E 135°27'2 2.2
2014-Nov-17 00:33N 34°34' E 135°24'2 2.0
2014-Nov-16 23:33N 34°33' E 135°27'0 0.0
2014-Nov-16 22:33N 34°33' E 135°27'2 0.1
2014-Nov-16 05:30N 34°33' E 135°24'0 0.5
2014-Nov-16 04:32N 34°33' E 135°25'1 1.5
2014-Nov-16 03:33N 34°33' E 135°27'0 0.0
2014-Nov-16 02:33N 34°33' E 135°27'0 0.0
2014-Nov-16 01:33N 34°33' E 135°27'0 0.0
2014-Nov-16 00:33N 34°33' E 135°27'0 0.0
2014-Nov-15 06:33N 34°33' E 135°27'0 0.0
2014-Nov-15 05:33N 34°33' E 135°27'0 0.0
2014-Nov-15 04:33N 34°33' E 135°27'2 0.9
2014-Nov-15 02:32N 34°34' E 135°24'3 3.5
2014-Nov-15 01:33N 34°33' E 135°20'3 3.3
2014-Nov-15 00:33N 34°31' E 135°23'0 0.0
2014-Nov-14 23:18N 34°31' E 135°23'2 3.0
2014-Nov-14 22:33N 34°33' E 135°24'1 0.9
2014-Nov-14 21:21N 34°33' E 135°25'1 1.6
2014-Nov-14 20:33N 34°33' E 135°27'0 0.0
2014-Nov-14 09:33N 34°33' E 135°27'6 6.1
2014-Nov-14 08:33N 34°39' E 135°24'0 0.1
2014-Nov-14 07:33N 34°39' E 135°24'5 4.9
2014-Nov-14 06:33N 34°34' E 135°24'3 2.5
2014-Nov-14 05:32N 34°33' E 135°27'0 0.0
2014-Nov-14 04:33N 34°33' E 135°27'0 0.0
2014-Nov-14 03:33N 34°33' E 135°27'0 0.0
2014-Nov-14 02:33N 34°33' E 135°27'0 0.0
2014-Nov-14 01:33N 34°33' E 135°27'0 0.0
2014-Nov-14 00:33N 34°33' E 135°27'0 0.0
2014-Nov-13 23:32N 34°33' E 135°27'2 0.1
2014-Nov-13 08:33N 34°33' E 135°25'5 4.0
2014-Nov-13 07:23N 34°38' E 135°27'0 0.1
2014-Nov-13 06:32N 34°38' E 135°26'3 3.0
2014-Nov-13 05:33N 34°36' E 135°24'0 0.0
2014-Nov-13 04:33N 34°36' E 135°24'5 5.1
2014-Nov-13 03:33N 34°32' E 135°21'1 1.4
2014-Nov-13 02:33N 34°30' E 135°22'  
Track history (hours):
 
Tides and Currents Weather Stations Pressure Air Temp Water Temp Dewpoint Dewpoint Depression Visibility Wind Speed Wind Dir Waves Ship Positions

Ryuhomaru

Last reported at 2014-Nov-23 02:33 UTC. Time now 2014-Nov-23 03:30 UTC.
Position N 34°33' E 135°27'.

Length 42 m; draft 3.5 m.

Type: Tug. MMSI: 431000586.

Date/timePositionNaut miles runAvg speedWind from/ knotsBaromVisibWave heightAir tempDewpointWater temp
2014-Nov-23 02:33N 34°33' E 135°27'2 1.8
2014-Nov-23 01:33N 34°33' E 135°24'1 0.5
2014-Nov-23 00:32N 34°34' E 135°25'0 0.1
2014-Nov-22 23:33N 34°34' E 135°25'0 0.1
2014-Nov-22 22:32N 34°33' E 135°25'0 0.2
2014-Nov-22 21:33N 34°34' E 135°25'0 0.1
2014-Nov-22 20:33N 34°33' E 135°25'0 0.1
2014-Nov-22 19:33N 34°33' E 135°25'0 0.1
2014-Nov-22 18:33N 34°33' E 135°25'0 0.0
2014-Nov-22 17:33N 34°33' E 135°25'0 0.1
2014-Nov-22 16:33N 34°33' E 135°25'0 0.1
2014-Nov-22 15:32N 34°33' E 135°25'0 0.0
2014-Nov-22 14:33N 34°33' E 135°25'0 0.1
2014-Nov-22 13:33N 34°33' E 135°25'0 0.2
2014-Nov-22 12:33N 34°34' E 135°25'0 0.2
2014-Nov-22 11:33N 34°33' E 135°25'0 0.1
2014-Nov-22 10:32N 34°34' E 135°25'0 0.1
2014-Nov-22 09:33N 34°34' E 135°25'0 0.0
2014-Nov-22 08:32N 34°34' E 135°25'0 0.1
2014-Nov-22 07:32N 34°33' E 135°25'0 0.1
2014-Nov-22 06:33N 34°34' E 135°25'0 0.0
2014-Nov-22 05:32N 34°33' E 135°25'0 0.0
2014-Nov-22 04:33N 34°33' E 135°25'0 0.1
2014-Nov-22 03:30N 34°33' E 135°25'0 0.1
2014-Nov-22 02:30N 34°34' E 135°25'0 0.1
2014-Nov-22 01:33N 34°34' E 135°25'0 0.1
2014-Nov-22 00:22N 34°34' E 135°25'1 0.8
2014-Nov-21 23:31N 34°33' E 135°26'1 0.6
2014-Nov-21 22:33N 34°33' E 135°27'0 0.1
2014-Nov-21 21:33N 34°33' E 135°27'0 0.0
2014-Nov-21 06:07N 34°33' E 135°27'2 2.4
2014-Nov-21 05:18N 34°34' E 135°24'2 2.6
2014-Nov-21 04:32N 34°33' E 135°22'3 2.7
2014-Nov-21 03:33N 34°33' E 135°25'1 1.3
2014-Nov-21 02:33N 34°33' E 135°27'0 0.0
2014-Nov-21 01:33N 34°33' E 135°27'0 0.0
2014-Nov-21 00:33N 34°33' E 135°27'0 0.0
2014-Nov-20 23:33N 34°33' E 135°27'0 0.0
2014-Nov-20 22:33N 34°33' E 135°27'0 0.0
2014-Nov-20 06:30N 34°33' E 135°27'0 0.0
2014-Nov-20 05:34N 34°33' E 135°27'0 0.0
2014-Nov-20 04:27N 34°33' E 135°27'4 1.5
2014-Nov-20 01:28N 34°33' E 135°21'1 1.1
2014-Nov-20 00:33N 34°34' E 135°22'3 3.5
2014-Nov-19 23:33N 34°33' E 135°27'0 0.0
2014-Nov-19 22:33N 34°33' E 135°27'0 0.0
2014-Nov-19 07:08N 34°33' E 135°27'3 4.6
2014-Nov-19 06:33N 34°33' E 135°23'1414.0
2014-Nov-19 05:33N 34°25' E 135°10'7 4.9
2014-Nov-19 04:06N 34°22' E 135°02'712.8
2014-Nov-19 03:33N 34°27' E 135°08'1212.2
2014-Nov-19 02:33N 34°33' E 135°21'4 3.7
2014-Nov-19 01:33N 34°33' E 135°25'1 1.3
2014-Nov-19 00:33N 34°33' E 135°27'0 0.0
2014-Nov-18 23:33N 34°33' E 135°27'0 0.0
2014-Nov-18 22:33N 34°33' E 135°27'1 0.0
2014-Nov-18 06:33N 34°33' E 135°26'0 0.1
2014-Nov-18 05:32N 34°33' E 135°26'5 4.7
2014-Nov-18 04:32N 34°33' E 135°20'3 2.6
2014-Nov-18 03:33N 34°32' E 135°23'2 2.0
2014-Nov-18 02:33N 34°33' E 135°25'0 0.0
2014-Nov-18 01:32N 34°33' E 135°25'5 4.8
2014-Nov-18 00:31N 34°33' E 135°19'1111.0
2014-Nov-17 23:33N 34°27' E 135°09'1312.8
2014-Nov-17 22:31N 34°16' E 134°59'3 3.2
2014-Nov-17 21:33N 34°13' E 134°60'1110.9
2014-Nov-17 20:33N 34°24' E 135°03'1211.8
2014-Nov-17 19:33N 34°30' E 135°15'1010.0
2014-Nov-17 18:33N 34°33' E 135°27'0 0.0
2014-Nov-17 06:19N 34°33' E 135°27'0 0.0
2014-Nov-17 05:33N 34°33' E 135°27'0 0.0
2014-Nov-17 04:33N 34°33' E 135°27'0 0.0
2014-Nov-17 03:29N 34°33' E 135°27'0 0.0
2014-Nov-17 02:33N 34°33' E 135°27'0 0.0
2014-Nov-17 01:28N 34°33' E 135°27'2 2.2
2014-Nov-17 00:33N 34°34' E 135°24'2 2.0
2014-Nov-16 23:33N 34°33' E 135°27'0 0.0
2014-Nov-16 22:33N 34°33' E 135°27'2 0.1
2014-Nov-16 05:30N 34°33' E 135°24'0 0.5
2014-Nov-16 04:32N 34°33' E 135°25'1 1.5
2014-Nov-16 03:33N 34°33' E 135°27'0 0.0
2014-Nov-16 02:33N 34°33' E 135°27'0 0.0
2014-Nov-16 01:33N 34°33' E 135°27'0 0.0
2014-Nov-16 00:33N 34°33' E 135°27'0 0.0
2014-Nov-15 06:33N 34°33' E 135°27'0 0.0
2014-Nov-15 05:33N 34°33' E 135°27'0 0.0
2014-Nov-15 04:33N 34°33' E 135°27'2 0.9
2014-Nov-15 02:32N 34°34' E 135°24'3 3.5
2014-Nov-15 01:33N 34°33' E 135°20'3 3.3
2014-Nov-15 00:33N 34°31' E 135°23'0 0.0
2014-Nov-14 23:18N 34°31' E 135°23'2 3.0
2014-Nov-14 22:33N 34°33' E 135°24'1 0.9
2014-Nov-14 21:21N 34°33' E 135°25'1 1.6
2014-Nov-14 20:33N 34°33' E 135°27'0 0.0
2014-Nov-14 09:33N 34°33' E 135°27'6 6.1
2014-Nov-14 08:33N 34°39' E 135°24'0 0.1
2014-Nov-14 07:33N 34°39' E 135°24'5 4.9
2014-Nov-14 06:33N 34°34' E 135°24'3 2.5
2014-Nov-14 05:32N 34°33' E 135°27'0 0.0
2014-Nov-14 04:33N 34°33' E 135°27'0 0.0
2014-Nov-14 03:33N 34°33' E 135°27'0 0.0
2014-Nov-14 02:33N 34°33' E 135°27'0 0.0
2014-Nov-14 01:33N 34°33' E 135°27'0 0.0
2014-Nov-14 00:33N 34°33' E 135°27'0 0.0
2014-Nov-13 23:32N 34°33' E 135°27'2 0.1
2014-Nov-13 08:33N 34°33' E 135°25'5 4.0
2014-Nov-13 07:23N 34°38' E 135°27'0 0.1
2014-Nov-13 06:32N 34°38' E 135°26'3 3.0
2014-Nov-13 05:33N 34°36' E 135°24'0 0.0
2014-Nov-13 04:33N 34°36' E 135°24'5 5.1
2014-Nov-13 03:33N 34°32' E 135°21'1 1.4
2014-Nov-13 02:33N 34°30' E 135°22'  

Dump ship's entire track history